createdAt,value
2023-01-19T00:01:06.727Z,94298
2023-01-19T00:02:16.430Z,94300
2023-01-19T00:03:26.195Z,94305
2023-01-19T00:04:34.904Z,94308
2023-01-19T00:05:44.590Z,94307
2023-01-19T00:06:53.349Z,94312
2023-01-19T00:08:02.362Z,94314
2023-01-19T00:09:11.823Z,94319
2023-01-19T00:10:20.537Z,94318
2023-01-19T00:11:29.239Z,94319
2023-01-19T00:12:39.017Z,94320
2023-01-19T00:13:47.695Z,94323
2023-01-19T00:14:57.432Z,94327
2023-01-19T00:16:07.199Z,94327
2023-01-19T00:17:15.858Z,94324
2023-01-19T00:18:25.606Z,94327
2023-01-19T00:19:32.347Z,94330
2023-01-19T00:20:42.031Z,94330
2023-01-19T00:21:51.788Z,94331
2023-01-19T00:23:00.933Z,94336
2023-01-19T00:24:09.186Z,94334
2023-01-19T00:25:17.885Z,94336
2023-01-19T00:26:26.575Z,94337
2023-01-19T00:27:36.285Z,94337
2023-01-19T00:28:44.078Z,94339
2023-01-19T00:29:53.686Z,94340
2023-01-19T00:31:03.434Z,94336
2023-01-19T00:32:11.142Z,94341
2023-01-19T00:33:19.923Z,94337
2023-01-19T00:34:28.626Z,94344
2023-01-19T00:35:37.315Z,94344
2023-01-19T00:36:47.037Z,94347
2023-01-19T00:37:53.744Z,94348
2023-01-19T00:39:03.435Z,94348
2023-01-19T00:40:13.166Z,94348
2023-01-19T00:41:20.852Z,94349
2023-01-19T00:42:29.596Z,94353
2023-01-19T00:43:38.305Z,94347
2023-01-19T00:44:47.041Z,94350
2023-01-19T00:45:56.841Z,94354
2023-01-19T00:47:05.427Z,94355
2023-01-19T00:48:14.162Z,94354
2023-01-19T00:49:23.879Z,94352
2023-01-19T00:50:31.654Z,94351
2023-01-19T00:51:40.334Z,94354
2023-01-19T00:52:49.062Z,94347
2023-01-19T00:53:57.772Z,94353
2023-01-19T00:55:07.517Z,94354
2023-01-19T00:56:15.215Z,94350
2023-01-19T00:57:23.913Z,94356
2023-01-19T00:58:33.636Z,94351
2023-01-19T00:59:42.530Z,94352
2023-01-19T01:00:52.344Z,94354
2023-01-19T01:02:00.116Z,94357
2023-01-19T01:03:08.772Z,94351
2023-01-19T01:04:17.497Z,94354
2023-01-19T01:05:27.205Z,94351
2023-01-19T01:06:36.977Z,94358
2023-01-19T01:07:44.705Z,94356
2023-01-19T01:08:53.356Z,94356
2023-01-19T01:10:03.049Z,94361
2023-01-19T01:11:11.784Z,94361
2023-01-19T01:12:21.557Z,94362
2023-01-19T01:13:31.596Z,94365
2023-01-19T01:14:40.040Z,94365
2023-01-19T01:15:49.750Z,94367
2023-01-19T01:16:58.591Z,94372
2023-01-19T01:18:08.276Z,94372
2023-01-19T01:19:18.137Z,94370
2023-01-19T01:20:25.979Z,94374
2023-01-19T01:21:33.683Z,94378
2023-01-19T01:22:42.427Z,94379
2023-01-19T01:23:51.153Z,94380
2023-01-19T01:25:00.927Z,94384
2023-01-19T01:26:34.591Z,94383
2023-01-19T01:27:43.328Z,94380
2023-01-19T01:28:53.042Z,94388
2023-01-19T01:30:01.786Z,94393
2023-01-19T01:31:10.532Z,94381
2023-01-19T01:32:19.288Z,94387
2023-01-19T01:33:40.275Z,94383
2023-01-19T01:34:38.724Z,94385
2023-01-19T01:35:47.429Z,94388
2023-01-19T01:36:57.168Z,94388
2023-01-19T01:38:06.895Z,94392
2023-01-19T01:39:14.642Z,94390
2023-01-19T01:40:23.360Z,94396
2023-01-19T01:41:33.045Z,94396
2023-01-19T01:42:41.762Z,94399
2023-01-19T01:43:51.487Z,94400
2023-01-19T01:45:00.342Z,94399
2023-01-19T01:46:10.126Z,94403
2023-01-19T01:47:19.803Z,94404
2023-01-19T01:48:27.505Z,94401
2023-01-19T01:49:37.233Z,94406
2023-01-19T01:50:46.052Z,94406
2023-01-19T01:51:55.740Z,94401
2023-01-19T01:53:07.188Z,94406
2023-01-19T01:54:14.180Z,94406
2023-01-19T01:55:23.032Z,94408
2023-01-19T01:56:32.824Z,94404
2023-01-19T01:57:40.511Z,94404
2023-01-19T01:58:48.253Z,94410
2023-01-19T01:59:57.002Z,94408
2023-01-19T02:01:05.851Z,94414
2023-01-19T02:02:14.451Z,94409
2023-01-19T02:03:23.195Z,94414
2023-01-19T02:04:31.895Z,94413
2023-01-19T02:05:41.547Z,94406
2023-01-19T02:06:50.262Z,94411
2023-01-19T02:07:58.996Z,94410
2023-01-19T02:09:07.731Z,94404
2023-01-19T02:10:16.406Z,94409
2023-01-19T02:11:26.090Z,94405
2023-01-19T02:12:33.812Z,94405
2023-01-19T02:13:42.534Z,94407
2023-01-19T02:14:52.297Z,94408
2023-01-19T02:16:01.000Z,94407
2023-01-19T02:17:09.704Z,94409
2023-01-19T02:18:18.392Z,94408
2023-01-19T02:19:28.099Z,94406
2023-01-19T02:20:37.837Z,94410
2023-01-19T02:21:46.531Z,94403
2023-01-19T02:22:56.208Z,94407
2023-01-19T02:24:05.899Z,94407
2023-01-19T02:25:13.589Z,94411
2023-01-19T02:26:23.269Z,94414
2023-01-19T02:27:32.027Z,94418
2023-01-19T02:28:40.686Z,94419
2023-01-19T02:29:50.362Z,94421
2023-01-19T02:30:57.081Z,94420
2023-01-19T02:32:05.798Z,94418
2023-01-19T02:33:15.489Z,94418
2023-01-19T02:34:24.182Z,94422
2023-01-19T02:35:32.894Z,94421
2023-01-19T02:36:41.671Z,94425
2023-01-19T02:37:50.352Z,94423
2023-01-19T02:39:00.050Z,94428
2023-01-19T02:40:08.781Z,94431
2023-01-19T02:41:18.504Z,94429
2023-01-19T02:42:28.239Z,94429
2023-01-19T02:43:36.979Z,94436
2023-01-19T02:44:46.684Z,94428
2023-01-19T02:45:55.408Z,94436
2023-01-19T02:47:04.075Z,94437
2023-01-19T02:48:13.839Z,94434
2023-01-19T02:49:22.593Z,94440
2023-01-19T02:50:32.850Z,94440
2023-01-19T02:51:42.084Z,94440
2023-01-19T02:52:49.826Z,94437
2023-01-19T02:53:59.589Z,94439
2023-01-19T02:55:09.278Z,94441
2023-01-19T02:56:17.001Z,94437
2023-01-19T02:57:25.807Z,94438
2023-01-19T02:58:35.497Z,94441
2023-01-19T02:59:45.219Z,94444
2023-01-19T03:00:54.987Z,94442
2023-01-19T03:02:03.672Z,94444
2023-01-19T03:03:13.386Z,94444
2023-01-19T03:04:23.131Z,94446
2023-01-19T03:05:31.851Z,94445
2023-01-19T03:06:39.567Z,94443
2023-01-19T03:07:48.289Z,94439
2023-01-19T03:08:58.001Z,94440
2023-01-19T03:10:06.694Z,94446
2023-01-19T03:11:15.432Z,94440
2023-01-19T03:12:25.199Z,94438
2023-01-19T03:13:34.941Z,94443
2023-01-19T03:14:43.590Z,94440
2023-01-19T03:15:52.461Z,94439
2023-01-19T03:17:01.040Z,94438
2023-01-19T03:18:09.681Z,94434
2023-01-19T03:19:18.422Z,94434
2023-01-19T03:20:27.116Z,94432
2023-01-19T03:21:36.884Z,94430
2023-01-19T03:22:44.564Z,94428
2023-01-19T03:23:53.292Z,94428
2023-01-19T03:25:03.097Z,94432
2023-01-19T03:26:12.728Z,94432
2023-01-19T03:27:22.485Z,94433
2023-01-19T03:28:30.239Z,94435
2023-01-19T03:29:38.990Z,94429
2023-01-19T03:30:48.681Z,94430
2023-01-19T03:31:56.337Z,94433
2023-01-19T03:33:05.039Z,94431
2023-01-19T03:34:13.793Z,94429
2023-01-19T03:35:22.499Z,94433
2023-01-19T03:36:32.168Z,94431
2023-01-19T03:37:39.871Z,94432
2023-01-19T03:38:49.561Z,94434
2023-01-19T03:39:59.291Z,94440
2023-01-19T03:41:08.009Z,94431
2023-01-19T03:42:17.709Z,94438
2023-01-19T03:43:27.413Z,94434
2023-01-19T03:44:37.120Z,94438
2023-01-19T03:45:46.881Z,94437
2023-01-19T03:46:54.547Z,94438
2023-01-19T03:48:02.298Z,94445
2023-01-19T03:49:11.990Z,94439
2023-01-19T03:50:19.672Z,94441
2023-01-19T03:51:28.462Z,94441
2023-01-19T03:52:37.175Z,94438
2023-01-19T03:53:46.896Z,94439
2023-01-19T03:54:56.609Z,94442
2023-01-19T03:56:05.276Z,94442
2023-01-19T03:57:14.046Z,94441
2023-01-19T03:58:23.727Z,94444
2023-01-19T03:59:32.483Z,94451
2023-01-19T04:00:41.193Z,94448
2023-01-19T04:01:49.953Z,94452
2023-01-19T04:02:59.963Z,94451
2023-01-19T04:04:08.348Z,94446
2023-01-19T04:05:17.051Z,94449
2023-01-19T04:06:25.731Z,94451
2023-01-19T04:07:35.480Z,94450
2023-01-19T04:08:44.224Z,94448
2023-01-19T04:09:53.925Z,94443
2023-01-19T04:11:02.663Z,94448
2023-01-19T04:12:12.435Z,94447
2023-01-19T04:13:22.146Z,94450
2023-01-19T04:14:31.841Z,94450
2023-01-19T04:15:40.555Z,94448
2023-01-19T04:16:50.206Z,94447
2023-01-19T04:17:58.918Z,94443
2023-01-19T04:19:08.600Z,94446
2023-01-19T04:20:18.287Z,94445
2023-01-19T04:21:26.950Z,94444
2023-01-19T04:22:36.669Z,94439
2023-01-19T04:23:45.384Z,94441
2023-01-19T04:24:54.041Z,94446
2023-01-19T04:26:03.742Z,94444
2023-01-19T04:27:12.457Z,94442
2023-01-19T04:28:22.231Z,94444
2023-01-19T04:29:31.957Z,94443
2023-01-19T04:30:40.627Z,94445
2023-01-19T04:31:50.403Z,94446
2023-01-19T04:32:58.554Z,94442
2023-01-19T04:34:06.960Z,94446
2023-01-19T04:35:16.644Z,94448
2023-01-19T04:36:24.334Z,94450
2023-01-19T04:37:33.141Z,94445
2023-01-19T04:38:41.810Z,94453
2023-01-19T04:39:51.543Z,94448
2023-01-19T04:41:00.223Z,94456
2023-01-19T04:42:07.947Z,94450
2023-01-19T04:43:16.661Z,94451
2023-01-19T04:44:26.407Z,94448
2023-01-19T04:45:34.102Z,94452
2023-01-19T04:46:43.819Z,94453
2023-01-19T04:47:52.470Z,94451
2023-01-19T04:49:01.251Z,94457
2023-01-19T04:50:11.009Z,94457
2023-01-19T04:51:19.694Z,94461
2023-01-19T04:52:28.390Z,94459
2023-01-19T04:53:38.073Z,94457
2023-01-19T04:54:46.783Z,94462
2023-01-19T04:55:56.476Z,94459
2023-01-19T04:57:05.163Z,94458
2023-01-19T04:58:13.867Z,94461
2023-01-19T04:59:22.563Z,94462
2023-01-19T05:00:31.275Z,94458
2023-01-19T05:01:40.995Z,94460
2023-01-19T05:02:49.695Z,94460
2023-01-19T05:03:58.353Z,94458
2023-01-19T05:05:08.122Z,94458
2023-01-19T05:06:15.853Z,94457
2023-01-19T05:07:24.551Z,94454
2023-01-19T05:08:33.266Z,94457
2023-01-19T05:09:43.034Z,94452
2023-01-19T05:10:52.728Z,94454
2023-01-19T05:12:00.441Z,94459
2023-01-19T05:13:09.134Z,94460
2023-01-19T05:14:18.846Z,94468
2023-01-19T05:15:26.585Z,94468
2023-01-19T05:16:36.331Z,94470
2023-01-19T05:17:45.150Z,94469
2023-01-19T05:18:53.783Z,94472
2023-01-19T05:20:03.653Z,94474
2023-01-19T05:21:12.328Z,94474
2023-01-19T05:22:21.062Z,94471
2023-01-19T05:23:30.818Z,94472
2023-01-19T05:24:40.832Z,94478
2023-01-19T05:25:50.544Z,94471
2023-01-19T05:26:59.239Z,94474
2023-01-19T05:28:08.939Z,94480
2023-01-19T05:29:18.670Z,94482
2023-01-19T05:30:26.355Z,94485
2023-01-19T05:31:36.204Z,94484
2023-01-19T05:32:45.768Z,94489
2023-01-19T05:33:53.535Z,94488
2023-01-19T05:35:03.227Z,94488
2023-01-19T05:36:11.924Z,94489
2023-01-19T05:37:20.602Z,94490
2023-01-19T05:38:35.215Z,94500
2023-01-19T05:39:40.056Z,94492
2023-01-19T05:40:48.826Z,94495
2023-01-19T05:41:58.517Z,94498
2023-01-19T05:43:08.225Z,94498
2023-01-19T05:44:17.932Z,94500
2023-01-19T05:45:26.635Z,94494
2023-01-19T05:46:36.458Z,94499
2023-01-19T05:47:46.144Z,94494
2023-01-19T05:48:53.894Z,94500
2023-01-19T05:50:02.599Z,94494
2023-01-19T05:51:12.252Z,94496
2023-01-19T05:52:21.002Z,94497
2023-01-19T05:53:30.799Z,94498
2023-01-19T05:54:39.536Z,94502
2023-01-19T05:55:48.222Z,94506
2023-01-19T05:56:57.942Z,94504
2023-01-19T05:58:06.803Z,94501
2023-01-19T05:59:16.455Z,94509
2023-01-19T06:00:26.148Z,94509
2023-01-19T06:01:34.883Z,94510
2023-01-19T06:02:43.745Z,94509
2023-01-19T06:03:51.363Z,94507
2023-01-19T06:05:00.182Z,94512
2023-01-19T06:06:09.909Z,94516
2023-01-19T06:07:18.601Z,94519
2023-01-19T06:08:29.313Z,94519
2023-01-19T06:09:39.065Z,94518
2023-01-19T06:10:46.796Z,94520
2023-01-19T06:11:55.509Z,94520
2023-01-19T06:13:04.231Z,94525
2023-01-19T06:14:12.945Z,94525
2023-01-19T06:15:21.661Z,94528
2023-01-19T06:16:29.409Z,94535
2023-01-19T06:17:38.051Z,94534
2023-01-19T06:18:47.759Z,94536
2023-01-19T06:19:56.513Z,94535
2023-01-19T06:21:06.245Z,94537
2023-01-19T06:22:15.004Z,94533
2023-01-19T06:23:23.636Z,94533
2023-01-19T06:24:33.344Z,94532
2023-01-19T06:25:41.038Z,94533
2023-01-19T06:26:49.747Z,94534
2023-01-19T06:27:59.442Z,94531
2023-01-19T06:29:08.140Z,94530
2023-01-19T06:30:16.842Z,94537
2023-01-19T06:31:25.586Z,94532
2023-01-19T06:32:34.249Z,94536
2023-01-19T06:33:43.987Z,94538
2023-01-19T06:34:53.998Z,94536
2023-01-19T06:36:02.415Z,94537
2023-01-19T06:37:12.113Z,94537
2023-01-19T06:38:19.883Z,94537
2023-01-19T06:39:29.563Z,94537
2023-01-19T06:40:38.281Z,94539
2023-01-19T06:41:46.962Z,94533
2023-01-19T06:42:56.663Z,94539
2023-01-19T06:44:05.386Z,94538
2023-01-19T06:45:14.175Z,94541
2023-01-19T06:46:23.857Z,94541
2023-01-19T06:47:31.567Z,94541
2023-01-19T06:48:40.287Z,94541
2023-01-19T06:49:48.989Z,94544
2023-01-19T06:50:59.465Z,94545
2023-01-19T06:52:07.337Z,94547
2023-01-19T06:53:16.022Z,94548
2023-01-19T06:54:25.774Z,94550
2023-01-19T06:55:34.461Z,94551
2023-01-19T06:56:43.195Z,94552
2023-01-19T06:57:52.898Z,94556
2023-01-19T06:59:00.582Z,94551
2023-01-19T07:00:09.288Z,94554
2023-01-19T07:01:19.197Z,94554
2023-01-19T07:02:29.135Z,94557
2023-01-19T07:03:38.540Z,94559
2023-01-19T07:04:46.212Z,94557
2023-01-19T07:05:54.990Z,94560
2023-01-19T07:07:04.725Z,94557
2023-01-19T07:08:13.430Z,94560
2023-01-19T07:09:23.119Z,94565
2023-01-19T07:11:22.049Z,94565
2023-01-19T07:11:42.470Z,94569
2023-01-19T07:12:52.249Z,94568
2023-01-19T07:14:01.949Z,94567
2023-01-19T07:15:10.635Z,94578
2023-01-19T07:16:20.365Z,94573
2023-01-19T07:17:28.035Z,94583
2023-01-19T07:18:37.794Z,94578
2023-01-19T07:19:46.500Z,94579
2023-01-19T07:20:55.167Z,94580
2023-01-19T07:22:04.913Z,94577
2023-01-19T07:23:13.605Z,94581
2023-01-19T07:24:22.288Z,94577
2023-01-19T07:25:32.035Z,94585
2023-01-19T07:26:39.777Z,94583
2023-01-19T07:27:49.459Z,94579
2023-01-19T07:28:58.154Z,94586
2023-01-19T07:30:06.930Z,94586
2023-01-19T07:31:16.925Z,94583
2023-01-19T07:32:25.382Z,94583
2023-01-19T07:33:34.075Z,94581
2023-01-19T07:34:43.818Z,94585
2023-01-19T07:35:51.583Z,94587
2023-01-19T07:37:00.294Z,94585
2023-01-19T07:38:10.248Z,94589
2023-01-19T07:39:19.688Z,94588
2023-01-19T07:40:29.425Z,94593
2023-01-19T07:41:38.163Z,94591
2023-01-19T07:42:47.027Z,94598
2023-01-19T07:43:56.633Z,94594
2023-01-19T07:45:05.364Z,94601
2023-01-19T07:46:14.292Z,94600
2023-01-19T07:47:22.847Z,94600
2023-01-19T07:48:31.637Z,94601
2023-01-19T07:49:41.337Z,94605
2023-01-19T07:50:50.073Z,94607
2023-01-19T07:51:58.842Z,94609
2023-01-19T07:53:08.642Z,94610
2023-01-19T07:54:17.372Z,94609
2023-01-19T07:55:26.079Z,94614
2023-01-19T07:56:34.813Z,94619
2023-01-19T07:57:43.524Z,94623
2023-01-19T07:58:53.310Z,94619
2023-01-19T08:00:02.088Z,94615
2023-01-19T08:01:10.892Z,94620
2023-01-19T08:02:20.598Z,94615
2023-01-19T08:03:28.220Z,94614
2023-01-19T08:04:37.141Z,94613
2023-01-19T08:05:45.824Z,94619
2023-01-19T08:06:55.586Z,94614
2023-01-19T08:08:05.316Z,94612
2023-01-19T08:09:13.067Z,94617
2023-01-19T08:10:22.821Z,94625
2023-01-19T08:11:32.565Z,94621
2023-01-19T08:12:41.288Z,94624
2023-01-19T08:13:51.015Z,94625
2023-01-19T08:14:59.774Z,94618
2023-01-19T08:16:08.603Z,94622
2023-01-19T08:17:18.344Z,94623
2023-01-19T08:18:26.096Z,94623
2023-01-19T08:19:35.791Z,94625
2023-01-19T08:20:45.529Z,94626
2023-01-19T08:21:54.253Z,94634
2023-01-19T08:23:03.576Z,94631
2023-01-19T08:24:11.733Z,94635
2023-01-19T08:25:21.434Z,94638
2023-01-19T08:26:31.155Z,94639
2023-01-19T08:27:38.892Z,94643
2023-01-19T08:28:47.680Z,94641
2023-01-19T08:29:57.367Z,94638
2023-01-19T08:31:18.457Z,94635
2023-01-19T08:32:15.862Z,94636
2023-01-19T08:33:24.522Z,94640
2023-01-19T08:34:33.249Z,94634
2023-01-19T08:35:43.014Z,94635
2023-01-19T08:36:50.770Z,94637
2023-01-19T08:37:59.449Z,94642
2023-01-19T08:39:08.174Z,94637
2023-01-19T08:40:15.877Z,94644
2023-01-19T08:41:25.591Z,94635
2023-01-19T08:42:34.282Z,94641
2023-01-19T08:43:42.942Z,94639
2023-01-19T08:44:57.991Z,94636
2023-01-19T08:46:02.438Z,94642
2023-01-19T08:47:12.196Z,94638
2023-01-19T08:48:21.835Z,94644
2023-01-19T08:49:30.545Z,94647
2023-01-19T08:50:40.360Z,94646
2023-01-19T08:51:49.112Z,94644
2023-01-19T08:52:58.118Z,94648
2023-01-19T08:54:06.439Z,94646
2023-01-19T08:55:15.140Z,94646
2023-01-19T08:56:24.887Z,94643
2023-01-19T08:57:32.596Z,94645
2023-01-19T08:58:41.281Z,94650
2023-01-19T08:59:51.955Z,94647
2023-01-19T09:00:59.680Z,94646
2023-01-19T09:02:09.366Z,94646
2023-01-19T09:03:18.102Z,94647
2023-01-19T09:04:26.855Z,94646
2023-01-19T09:05:36.575Z,94646
2023-01-19T09:06:45.289Z,94650
2023-01-19T09:07:55.094Z,94644
2023-01-19T09:09:04.818Z,94645
2023-01-19T09:10:12.499Z,94644
2023-01-19T09:11:21.179Z,94651
2023-01-19T09:12:29.874Z,94653
2023-01-19T09:13:38.607Z,94650
2023-01-19T09:14:48.316Z,94645
2023-01-19T09:15:56.023Z,94655
2023-01-19T09:17:04.744Z,94651
2023-01-19T09:18:14.455Z,94649
2023-01-19T09:19:23.214Z,94653
2023-01-19T09:20:32.854Z,94650
2023-01-19T09:21:41.607Z,94652
2023-01-19T09:22:50.350Z,94652
2023-01-19T09:24:00.194Z,94657
2023-01-19T09:25:08.925Z,94660
2023-01-19T09:26:17.636Z,94665
2023-01-19T09:27:27.283Z,94661
2023-01-19T09:28:36.046Z,94665
2023-01-19T09:29:44.744Z,94663
2023-01-19T09:30:53.566Z,94661
2023-01-19T09:32:03.161Z,94661
2023-01-19T09:33:12.964Z,94661
2023-01-19T09:34:21.649Z,94666
2023-01-19T09:35:30.394Z,94663
2023-01-19T09:36:40.075Z,94661
2023-01-19T09:37:48.782Z,94666
2023-01-19T09:38:58.529Z,94665
2023-01-19T09:40:06.254Z,94671
2023-01-19T09:41:14.906Z,94672
2023-01-19T09:42:24.637Z,94674
2023-01-19T09:43:33.391Z,94674
2023-01-19T09:44:42.084Z,94663
2023-01-19T09:45:51.815Z,94674
2023-01-19T09:47:00.527Z,94663
2023-01-19T09:48:08.260Z,94671
2023-01-19T09:49:16.960Z,94681
2023-01-19T09:50:25.678Z,94679
2023-01-19T09:51:35.434Z,94672
2023-01-19T09:52:44.099Z,94669
2023-01-19T09:53:52.893Z,94675
2023-01-19T09:55:02.571Z,94673
2023-01-19T09:56:12.328Z,94665
2023-01-19T09:57:21.039Z,94664
2023-01-19T09:58:29.728Z,94666
2023-01-19T09:59:39.448Z,94666
2023-01-19T10:00:48.175Z,94668
2023-01-19T10:01:56.911Z,94667
2023-01-19T10:03:05.590Z,94668
2023-01-19T10:04:15.275Z,94666
2023-01-19T10:05:22.997Z,94666
2023-01-19T10:06:31.703Z,94666
2023-01-19T10:07:40.413Z,94666
2023-01-19T10:08:49.083Z,94671
2023-01-19T10:09:58.784Z,94671
2023-01-19T10:11:06.572Z,94672
2023-01-19T10:12:17.000Z,94671
2023-01-19T10:13:25.937Z,94666
2023-01-19T10:14:34.633Z,94667
2023-01-19T10:15:43.337Z,94669
2023-01-19T10:16:52.052Z,94667
2023-01-19T10:18:02.019Z,94665
2023-01-19T10:19:11.411Z,94669
2023-01-19T10:20:19.182Z,94660
2023-01-19T10:21:27.794Z,94664
2023-01-19T10:22:36.536Z,94659
2023-01-19T10:23:45.435Z,94662
2023-01-19T10:24:55.105Z,94668
2023-01-19T10:26:03.794Z,94666
2023-01-19T10:27:12.474Z,94673
2023-01-19T10:28:22.231Z,94669
2023-01-19T10:29:29.911Z,94669
2023-01-19T10:30:39.613Z,94660
2023-01-19T10:31:49.318Z,94666
2023-01-19T10:32:58.069Z,94661
2023-01-19T10:34:05.690Z,94663
2023-01-19T10:35:14.380Z,94665
2023-01-19T10:36:23.080Z,94670
2023-01-19T10:37:32.759Z,94674
2023-01-19T10:38:41.512Z,94670
2023-01-19T10:39:50.226Z,94675
2023-01-19T10:40:59.908Z,94674
2023-01-19T10:42:08.570Z,94675
2023-01-19T10:43:17.335Z,94664
2023-01-19T10:44:26.008Z,94666
2023-01-19T10:45:36.751Z,94671
2023-01-19T10:46:45.407Z,94672
2023-01-19T10:47:54.124Z,94668
2023-01-19T10:49:03.750Z,94662
2023-01-19T10:50:12.614Z,94660
2023-01-19T10:51:21.428Z,94667
2023-01-19T10:52:31.116Z,94659
2023-01-19T10:53:40.818Z,94658
2023-01-19T10:54:49.556Z,94650
2023-01-19T10:55:59.290Z,94659
2023-01-19T10:57:08.022Z,94653
2023-01-19T10:58:18.976Z,94653
2023-01-19T10:59:26.348Z,94664
2023-01-19T11:00:35.032Z,94657
2023-01-19T11:01:44.900Z,94662
2023-01-19T11:02:53.498Z,94655
2023-01-19T11:04:02.132Z,94652
2023-01-19T11:05:10.805Z,94654
2023-01-19T11:06:19.493Z,94655
2023-01-19T11:07:29.175Z,94659
2023-01-19T11:08:36.907Z,94651
2023-01-19T11:09:46.639Z,94654
2023-01-19T11:10:56.428Z,94656
2023-01-19T11:12:06.224Z,94647
2023-01-19T11:13:15.952Z,94652
2023-01-19T11:14:24.653Z,94648
2023-01-19T11:15:34.326Z,94649
2023-01-19T11:16:44.174Z,94647
2023-01-19T11:17:52.827Z,94646
2023-01-19T11:19:01.494Z,94647
2023-01-19T11:20:11.222Z,94647
2023-01-19T11:21:18.925Z,94651
2023-01-19T11:22:27.608Z,94653
2023-01-19T11:23:37.320Z,94645
2023-01-19T11:24:47.161Z,94651
2023-01-19T11:25:56.844Z,94645
2023-01-19T11:27:05.528Z,94651
2023-01-19T11:28:14.232Z,94644
2023-01-19T11:29:23.904Z,94645
2023-01-19T11:30:33.583Z,94644
2023-01-19T11:31:42.353Z,94644
2023-01-19T11:32:51.053Z,94640
2023-01-19T11:33:59.726Z,94643
2023-01-19T11:35:09.867Z,94643
2023-01-19T11:36:19.659Z,94648
2023-01-19T11:37:32.272Z,94642
2023-01-19T11:38:45.227Z,94637
2023-01-19T11:39:58.110Z,94640
2023-01-19T11:41:10.303Z,94641
2023-01-19T11:42:22.997Z,94638
2023-01-19T11:43:48.167Z,94631
2023-01-19T11:44:48.576Z,94632
2023-01-19T11:46:00.290Z,94633
2023-01-19T11:47:09.624Z,94628
2023-01-19T11:48:19.825Z,94627
2023-01-19T11:49:29.189Z,94625
2023-01-19T11:50:39.703Z,94625
2023-01-19T11:51:50.026Z,94623
2023-01-19T11:53:00.783Z,94627
2023-01-19T11:54:11.910Z,94623
2023-01-19T11:55:22.266Z,94622
2023-01-19T11:56:34.033Z,94621
2023-01-19T11:57:45.656Z,94624
2023-01-19T11:58:56.953Z,94616
2023-01-19T12:00:06.794Z,94614
2023-01-19T12:01:16.925Z,94615
2023-01-19T12:02:27.241Z,94614
2023-01-19T12:03:39.536Z,94619
2023-01-19T12:04:51.254Z,94620
2023-01-19T12:06:03.874Z,94618
2023-01-19T12:07:15.876Z,94614
2023-01-19T12:08:27.488Z,94618
2023-01-19T12:09:37.137Z,94616
2023-01-19T12:10:46.852Z,94617
2023-01-19T12:11:54.585Z,94613
2023-01-19T12:13:03.348Z,94610
2023-01-19T12:14:13.926Z,94609
2023-01-19T12:15:24.387Z,94605
2023-01-19T12:16:34.526Z,94609
2023-01-19T12:17:42.248Z,94611
2023-01-19T12:18:51.995Z,94603
2023-01-19T12:20:04.487Z,94604
2023-01-19T12:21:12.291Z,94601
2023-01-19T12:22:21.025Z,94598
2023-01-19T12:23:31.282Z,94603
2023-01-19T12:24:43.091Z,94602
2023-01-19T12:25:54.965Z,94604
2023-01-19T12:27:05.872Z,94601
2023-01-19T12:28:17.235Z,94597
2023-01-19T12:29:29.360Z,94598
2023-01-19T12:30:42.942Z,94604
2023-01-19T12:31:53.939Z,94600
2023-01-19T12:33:05.032Z,94595
2023-01-19T12:34:15.733Z,94598
2023-01-19T12:35:26.998Z,94597
2023-01-19T12:36:35.756Z,94595
2023-01-19T12:37:46.865Z,94596
2023-01-19T12:38:57.691Z,94596
2023-01-19T12:40:09.028Z,94605
2023-01-19T12:41:18.096Z,94603
2023-01-19T12:42:27.325Z,94599
2023-01-19T12:43:37.918Z,94603
2023-01-19T12:44:48.944Z,94601
2023-01-19T12:45:59.247Z,94603
2023-01-19T12:47:10.441Z,94607
2023-01-19T12:48:20.546Z,94599
2023-01-19T12:49:32.073Z,94605
2023-01-19T12:50:43.574Z,94605
2023-01-19T12:51:54.705Z,94604
2023-01-19T12:53:06.182Z,94598
2023-01-19T12:54:17.185Z,94597
2023-01-19T12:55:28.003Z,94597
2023-01-19T12:56:38.064Z,94596
2023-01-19T12:57:48.762Z,94595
2023-01-19T12:58:59.847Z,94594
2023-01-19T13:00:11.838Z,94592
2023-01-19T13:01:23.952Z,94595
2023-01-19T13:02:35.347Z,94587
2023-01-19T13:03:45.404Z,94592
2023-01-19T13:04:57.647Z,94602
2023-01-19T13:06:10.633Z,94600
2023-01-19T13:07:20.837Z,94599
2023-01-19T13:08:30.083Z,94595
2023-01-19T13:09:39.687Z,94597
2023-01-19T13:10:50.297Z,94600
2023-01-19T13:12:01.092Z,94594
2023-01-19T13:13:11.069Z,94593
2023-01-19T13:14:20.998Z,94597
2023-01-19T13:15:31.196Z,94596
2023-01-19T13:16:41.318Z,94599
2023-01-19T13:17:50.605Z,94601
2023-01-19T13:19:03.010Z,94601
2023-01-19T13:20:11.769Z,94603
2023-01-19T13:21:22.377Z,94601
2023-01-19T13:22:32.212Z,94596
2023-01-19T13:23:41.193Z,94603
2023-01-19T13:24:51.059Z,94600
2023-01-19T13:26:02.022Z,94604
2023-01-19T13:27:13.454Z,94597
2023-01-19T13:28:24.785Z,94595
2023-01-19T13:29:33.602Z,94596
2023-01-19T13:30:43.704Z,94595
2023-01-19T13:31:56.044Z,94596
2023-01-19T13:33:07.843Z,94601
2023-01-19T13:34:18.785Z,94602
2023-01-19T13:35:26.554Z,94598
2023-01-19T13:36:36.248Z,94599
2023-01-19T13:37:45.975Z,94598
2023-01-19T13:38:53.640Z,94599
2023-01-19T13:40:02.747Z,94601
2023-01-19T13:41:11.093Z,94598
2023-01-19T13:42:19.831Z,94600
2023-01-19T13:43:29.528Z,94600
2023-01-19T13:44:37.237Z,94597
2023-01-19T13:45:49.550Z,94594
2023-01-19T13:46:56.633Z,94596
2023-01-19T13:48:04.333Z,94597
2023-01-19T13:49:14.032Z,94596
2023-01-19T13:50:22.736Z,94594
2023-01-19T13:51:31.495Z,94596
2023-01-19T13:52:41.193Z,94596
2023-01-19T13:53:49.914Z,94592
2023-01-19T13:55:02.441Z,94593
2023-01-19T13:56:09.312Z,94595
2023-01-19T13:57:18.060Z,94595
2023-01-19T13:58:26.751Z,94598
2023-01-19T13:59:36.485Z,94595
2023-01-19T14:00:46.127Z,94599
2023-01-19T14:01:56.058Z,94596
2023-01-19T14:03:04.612Z,94601
2023-01-19T14:04:14.290Z,94599
2023-01-19T14:05:24.004Z,94608
2023-01-19T14:06:31.695Z,94604
2023-01-19T14:07:40.378Z,94603
2023-01-19T14:08:50.131Z,94603
2023-01-19T14:09:59.881Z,94605
2023-01-19T14:11:09.511Z,94606
2023-01-19T14:12:16.300Z,94605
2023-01-19T14:13:24.987Z,94603
2023-01-19T14:14:34.743Z,94605
2023-01-19T14:15:41.541Z,94608
2023-01-19T14:16:50.167Z,94607
2023-01-19T14:17:58.987Z,94608
2023-01-19T14:19:07.683Z,94607
2023-01-19T14:20:16.378Z,94606
2023-01-19T14:21:25.071Z,94606
2023-01-19T14:22:33.794Z,94607
2023-01-19T14:23:43.504Z,94605
2023-01-19T14:24:52.189Z,94611
2023-01-19T14:26:00.909Z,94611
2023-01-19T14:27:09.656Z,94609
2023-01-19T14:28:19.419Z,94610
2023-01-19T14:29:29.116Z,94608
2023-01-19T14:30:37.852Z,94615
2023-01-19T14:31:46.543Z,94610
2023-01-19T14:32:56.238Z,94604
2023-01-19T14:34:05.020Z,94617
2023-01-19T14:35:13.702Z,94615
2023-01-19T14:36:22.403Z,94618
2023-01-19T14:37:32.187Z,94617
2023-01-19T14:38:41.883Z,94620
2023-01-19T14:39:50.594Z,94618
2023-01-19T14:41:00.286Z,94619
2023-01-19T14:42:10.000Z,94618
2023-01-19T14:43:20.775Z,94622
2023-01-19T14:44:29.443Z,94619
2023-01-19T14:45:38.122Z,94620
2023-01-19T14:46:46.853Z,94619
2023-01-19T14:47:55.550Z,94622
2023-01-19T14:49:04.308Z,94619
2023-01-19T14:50:13.994Z,94618
2023-01-19T14:51:22.679Z,94617
2023-01-19T14:52:32.371Z,94620